createdAt,value
2019-02-11T00:00:33.681Z,1.00
2019-02-11T00:03:06.061Z,1.00
2019-02-11T00:05:45.106Z,1.20
2019-02-11T00:08:21.764Z,1.17
2019-02-11T00:11:03.884Z,1.13
2019-02-11T00:13:33.958Z,1.37
2019-02-11T00:16:06.658Z,1.30
2019-02-11T00:18:36.678Z,1.13
2019-02-11T00:21:08.347Z,1.30
2019-02-11T00:23:40.460Z,1.13
2019-02-11T00:26:10.788Z,1.20
2019-02-11T00:28:55.298Z,1.40
2019-02-11T00:31:36.273Z,1.30
2019-02-11T00:34:23.454Z,1.50
2019-02-11T00:37:04.677Z,1.30
2019-02-11T00:39:29.845Z,1.30
2019-02-11T00:42:00.625Z,1.40
2019-02-11T00:44:37.855Z,1.10
2019-02-11T00:47:11.585Z,1.83
2019-02-11T00:49:42.008Z,1.47
2019-02-11T00:52:12.538Z,1.20
2019-02-11T00:54:43.794Z,1.47
2019-02-11T00:57:14.812Z,1.23
2019-02-11T00:59:44.682Z,1.63
2019-02-11T01:02:26.452Z,1.57
2019-02-11T01:04:56.947Z,1.90
2019-02-11T01:07:29.560Z,1.80
2019-02-11T01:10:00.025Z,1.63
2019-02-11T01:12:29.872Z,1.60
2019-02-11T01:15:00.758Z,1.40
2019-02-11T01:17:30.987Z,1.43
2019-02-11T01:20:02.224Z,1.80
2019-02-11T01:22:35.397Z,1.70
2019-02-11T01:28:18.091Z,2.00
2019-02-11T01:30:48.499Z,1.90
2019-02-11T01:33:24.538Z,1.63
2019-02-11T01:36:00.562Z,1.40
2019-02-11T01:38:31.503Z,1.40
2019-02-11T01:41:01.567Z,1.30
2019-02-11T01:43:36.112Z,1.30
2019-02-11T01:46:03.664Z,1.30
2019-02-11T01:48:33.660Z,1.67
2019-02-11T01:51:04.297Z,1.63
2019-02-11T01:53:34.883Z,1.53
2019-02-11T01:56:08.784Z,1.20
2019-02-11T01:58:38.581Z,1.20
2019-02-11T02:01:11.917Z,1.30
2019-02-11T02:03:41.764Z,1.33
2019-02-11T02:06:11.414Z,1.17
2019-02-11T02:08:41.078Z,1.43
2019-02-11T02:11:11.612Z,1.30
2019-02-11T02:13:44.823Z,1.37
2019-02-11T02:16:13.301Z,1.17
2019-02-11T02:18:43.915Z,1.40
2019-02-11T02:21:18.314Z,1.50
2019-02-11T02:23:49.754Z,1.40
2019-02-11T02:26:22.608Z,1.60
2019-02-11T02:28:58.042Z,1.57
2019-02-11T02:31:30.743Z,1.43
2019-02-11T02:34:01.196Z,1.50
2019-02-11T02:36:31.424Z,1.65
2019-02-11T02:39:01.607Z,1.70
2019-02-11T02:41:31.311Z,1.50
2019-02-11T02:44:01.186Z,1.60
2019-02-11T02:46:31.221Z,1.80
2019-02-11T02:49:03.535Z,1.63
2019-02-11T02:51:33.384Z,1.90
2019-02-11T02:54:02.874Z,1.57
2019-02-11T02:56:33.298Z,1.53
2019-02-11T02:59:03.379Z,1.60
2019-02-11T03:01:33.338Z,1.40
2019-02-11T03:04:03.723Z,2.50
2019-02-11T03:06:35.767Z,1.80
2019-02-11T03:09:12.640Z,2.20
2019-02-11T03:11:45.880Z,1.90
2019-02-11T03:14:16.221Z,1.80
2019-02-11T03:16:46.261Z,1.60
2019-02-11T03:19:16.480Z,1.60
2019-02-11T03:21:47.193Z,1.60
2019-02-11T03:24:17.361Z,1.90
2019-02-11T03:26:51.219Z,2.03
2019-02-11T03:29:25.560Z,1.33
2019-02-11T03:31:59.610Z,1.60
2019-02-11T03:34:30.481Z,1.50
2019-02-11T03:37:02.756Z,1.40
2019-02-11T03:39:32.882Z,1.53
2019-02-11T03:42:04.575Z,1.60
2019-02-11T03:44:34.294Z,1.60
2019-02-11T03:47:04.231Z,1.83
2019-02-11T03:49:41.361Z,1.90
2019-02-11T03:52:11.331Z,2.13
2019-02-11T03:54:41.115Z,2.00
2019-02-11T03:57:11.359Z,2.47
2019-02-11T03:59:41.587Z,2.00
2019-02-11T04:02:11.988Z,2.30
2019-02-11T04:04:41.859Z,2.10
2019-02-11T04:07:12.179Z,2.10
2019-02-11T04:09:49.765Z,2.00
2019-02-11T04:12:19.332Z,1.90
2019-02-11T04:14:49.465Z,2.23
2019-02-11T04:17:21.134Z,2.00
2019-02-11T04:19:54.866Z,2.00
2019-02-11T04:22:26.761Z,1.90
2019-02-11T04:24:57.836Z,2.07
2019-02-11T04:27:30.003Z,2.00
2019-02-11T04:30:02.709Z,1.97
2019-02-11T04:32:36.075Z,2.30
2019-02-11T04:35:08.528Z,1.80
2019-02-11T04:37:40.950Z,1.50
2019-02-11T04:40:14.253Z,2.10
2019-02-11T04:42:47.391Z,1.70
2019-02-11T04:45:17.166Z,2.37
2019-02-11T04:47:48.422Z,1.70
2019-02-11T04:50:23.864Z,2.30
2019-02-11T04:52:54.932Z,2.00
2019-02-11T04:55:24.541Z,1.83
2019-02-11T04:57:54.518Z,1.90
2019-02-11T05:00:24.302Z,2.03
2019-02-11T05:02:56.463Z,1.70
2019-02-11T05:05:27.090Z,1.90
2019-02-11T05:07:57.918Z,2.07
2019-02-11T05:10:33.344Z,1.63
2019-02-11T05:13:02.372Z,1.80
2019-02-11T05:15:34.722Z,1.80
2019-02-11T05:18:06.860Z,1.53
2019-02-11T05:20:37.538Z,2.93
2019-02-11T05:23:11.626Z,1.83
2019-02-11T05:25:41.464Z,2.03
2019-02-11T05:28:11.557Z,2.20
2019-02-11T05:30:54.757Z,2.40
2019-02-11T05:33:26.825Z,2.67
2019-02-11T05:35:56.789Z,2.00
2019-02-11T05:38:28.274Z,2.20
2019-02-11T05:40:58.942Z,1.70
2019-02-11T05:43:29.829Z,1.73
2019-02-11T05:46:00.356Z,2.10
2019-02-11T05:48:32.109Z,2.13
2019-02-11T05:51:05.868Z,3.37
2019-02-11T05:53:36.612Z,2.10
2019-02-11T05:56:13.632Z,1.90
2019-02-11T05:58:43.260Z,1.60
2019-02-11T06:01:13.087Z,1.80
2019-02-11T06:03:42.954Z,2.17
2019-02-11T06:06:13.546Z,1.90
2019-02-11T06:08:44.345Z,1.87
2019-02-11T06:11:14.445Z,2.10
2019-02-11T06:13:44.654Z,2.10
2019-02-11T06:16:15.277Z,2.60
2019-02-11T06:18:45.814Z,1.80
2019-02-11T06:21:32.271Z,1.60
2019-02-11T06:24:02.763Z,1.90
2019-02-11T06:26:33.359Z,2.57
2019-02-11T06:29:04.195Z,2.40
2019-02-11T06:31:53.279Z,2.13
2019-02-11T06:34:33.887Z,1.83
2019-02-11T06:37:12.221Z,2.10
2019-02-11T06:40:10.381Z,2.20
2019-02-11T06:43:01.879Z,2.33
2019-02-11T06:49:28.193Z,2.10
2019-02-11T06:52:02.127Z,2.20
2019-02-11T06:54:36.452Z,2.00
2019-02-11T06:57:08.998Z,2.30
2019-02-11T07:04:27.465Z,2.27
2019-02-11T07:07:44.081Z,1.97
2019-02-11T07:10:13.935Z,2.17
2019-02-11T07:12:44.848Z,2.20
2019-02-11T07:15:21.667Z,2.20
2019-02-11T07:17:48.452Z,2.40
2019-02-11T07:20:18.359Z,2.00
2019-02-11T07:22:48.213Z,2.00
2019-02-11T07:25:18.121Z,1.87
2019-02-11T07:27:47.986Z,2.63
2019-02-11T07:30:17.893Z,3.10
2019-02-11T07:32:47.756Z,2.70
2019-02-11T07:35:18.673Z,3.10
2019-02-11T07:37:48.404Z,3.83
2019-02-11T07:40:18.232Z,3.20
2019-02-11T07:43:19.689Z,3.47
2019-02-11T07:46:09.178Z,3.53
2019-02-11T07:48:46.698Z,2.30
2019-02-11T07:51:17.031Z,3.07
2019-02-11T07:53:47.276Z,3.03
2019-02-11T07:56:18.826Z,2.70
2019-02-11T07:59:00.715Z,2.10
2019-02-11T08:01:35.429Z,2.10
2019-02-11T08:04:12.383Z,3.07
2019-02-11T08:06:54.123Z,2.00
2019-02-11T08:12:54.383Z,2.27
2019-02-11T08:15:38.631Z,2.23
2019-02-11T08:18:10.101Z,1.82
2019-02-11T08:21:01.205Z,2.30
2019-02-11T08:25:25.365Z,2.13
2019-02-11T08:27:40.137Z,1.90
2019-02-11T08:30:32.756Z,2.13
2019-02-11T08:36:54.684Z,1.90
2019-02-11T08:39:39.138Z,2.52
2019-02-11T08:42:38.975Z,1.90
2019-02-11T08:45:59.026Z,1.80
2019-02-11T08:48:31.206Z,1.50
2019-02-11T08:51:17.033Z,1.63
2019-02-11T08:53:57.501Z,2.00
2019-02-11T08:57:46.351Z,1.63
2019-02-11T09:00:09.360Z,1.70
2019-02-11T09:03:26.821Z,1.80
2019-02-11T09:06:14.084Z,1.93
2019-02-11T09:08:56.342Z,1.80
2019-02-11T09:18:33.119Z,2.47
2019-02-11T09:25:27.161Z,1.73
2019-02-11T09:28:04.393Z,2.30
2019-02-11T09:31:14.654Z,2.47
2019-02-11T09:34:06.686Z,1.60
2019-02-11T09:36:59.997Z,1.63
2019-02-11T09:39:53.871Z,1.80
2019-02-11T09:42:45.169Z,2.03
2019-02-11T09:45:51.204Z,2.07
2019-02-11T09:49:22.616Z,1.72
2019-02-11T09:51:54.538Z,2.10
2019-02-11T09:55:06.211Z,1.70
2019-02-11T09:57:58.044Z,1.67
2019-02-11T10:00:33.591Z,1.67
2019-02-11T10:03:09.926Z,1.87
2019-02-11T10:06:19.796Z,2.13
2019-02-11T10:16:12.463Z,1.83
2019-02-11T10:18:56.279Z,2.67
2019-02-11T10:21:49.402Z,2.27
2019-02-11T10:25:18.680Z,3.67
2019-02-11T10:28:14.500Z,3.27
2019-02-11T10:31:57.697Z,3.53
2019-02-11T10:38:49.406Z,3.50
2019-02-11T10:42:21.632Z,1.80
2019-02-11T10:45:53.927Z,3.40
2019-02-11T10:52:57.808Z,2.00
2019-02-11T10:57:03.350Z,3.00
2019-02-11T11:00:32.478Z,2.40
2019-02-11T11:07:55.804Z,1.83
2019-02-11T11:34:41.088Z,2.03
2019-02-11T11:40:53.636Z,2.47
2019-02-11T11:43:23.394Z,2.30
2019-02-11T11:45:53.147Z,2.47
2019-02-11T11:48:25.805Z,2.40
2019-02-11T11:50:55.942Z,2.33
2019-02-11T11:53:25.375Z,2.50
2019-02-11T11:55:55.860Z,2.43
2019-02-11T11:58:26.930Z,2.40
2019-02-11T12:00:56.739Z,2.50
2019-02-11T12:03:26.683Z,3.70
2019-02-11T12:05:56.168Z,3.80
2019-02-11T12:08:25.534Z,3.80
2019-02-11T12:10:55.531Z,3.20
2019-02-11T12:13:26.016Z,2.73
2019-02-11T12:15:55.930Z,2.33
2019-02-11T12:18:25.622Z,2.10
2019-02-11T12:20:55.680Z,3.47
2019-02-11T12:23:49.214Z,6.00
2019-02-11T12:26:21.820Z,2.87
2019-02-11T12:29:01.881Z,1.93
2019-02-11T12:31:49.430Z,2.20
2019-02-11T12:34:38.974Z,2.17
2019-02-11T12:37:19.852Z,2.40
2019-02-11T12:39:52.470Z,2.60
2019-02-11T12:42:33.951Z,2.40
2019-02-11T12:45:35.319Z,2.67
2019-02-11T12:48:05.180Z,3.17
2019-02-11T12:50:56.177Z,2.40
2019-02-11T12:53:37.726Z,2.83
2019-02-11T12:56:17.980Z,2.90
2019-02-11T12:58:52.264Z,3.13
2019-02-11T13:01:23.455Z,4.90
2019-02-11T13:03:58.981Z,3.10
2019-02-11T13:06:45.618Z,3.00
2019-02-11T13:09:25.815Z,2.30
2019-02-11T13:11:57.093Z,2.27
2019-02-11T13:14:44.155Z,2.27
2019-02-11T13:17:33.977Z,3.80
2019-02-11T13:20:32.723Z,3.10
2019-02-11T13:22:43.876Z,2.80
2019-02-11T13:25:14.822Z,2.87
2019-02-11T13:27:46.016Z,2.23
2019-02-11T13:30:51.221Z,2.20
2019-02-11T13:33:26.396Z,2.30
2019-02-11T13:36:00.912Z,2.50
2019-02-11T13:38:49.075Z,3.50
2019-02-11T13:41:24.460Z,3.33
2019-02-11T13:44:25.712Z,2.37
2019-02-11T13:47:05.135Z,2.50
2019-02-11T13:49:35.077Z,2.97
2019-02-11T13:52:06.804Z,3.07
2019-02-11T13:54:56.437Z,2.50
2019-02-11T13:57:51.832Z,2.40
2019-02-11T14:00:42.968Z,2.80
2019-02-11T14:03:13.018Z,2.47
2019-02-11T14:05:49.387Z,2.83
2019-02-11T14:08:41.153Z,2.00
2019-02-11T14:11:31.173Z,2.83
2019-02-11T14:14:03.976Z,2.60
2019-02-11T14:16:43.589Z,2.63
2019-02-11T14:22:57.876Z,2.47
2019-02-11T14:25:42.844Z,2.00
2019-02-11T14:28:08.711Z,2.87
2019-02-11T14:33:54.693Z,6.87
2019-02-11T14:36:35.555Z,5.70
2019-02-11T14:39:14.167Z,4.60
2019-02-11T14:41:47.150Z,4.57
2019-02-11T14:44:24.541Z,3.23
2019-02-11T14:46:54.487Z,3.07
2019-02-11T14:49:24.739Z,4.47
2019-02-11T14:51:54.982Z,3.40
2019-02-11T14:54:28.066Z,2.97
2019-02-11T14:56:58.114Z,3.03
2019-02-11T14:59:28.822Z,3.83
2019-02-11T15:01:58.254Z,2.27
2019-02-11T15:04:27.890Z,2.57
2019-02-11T15:06:57.550Z,3.33
2019-02-11T15:09:27.509Z,3.20
2019-02-11T15:11:57.265Z,2.53
2019-02-11T15:14:26.954Z,2.97
2019-02-11T15:16:56.600Z,2.10
2019-02-11T15:19:26.926Z,3.57
2019-02-11T15:21:56.838Z,2.80
2019-02-11T15:24:27.019Z,2.50
2019-02-11T15:26:56.540Z,2.30
2019-02-11T15:29:27.003Z,3.63
2019-02-11T15:31:56.707Z,2.33
2019-02-11T15:34:26.740Z,3.27
2019-02-11T15:36:56.698Z,3.10
2019-02-11T15:39:27.011Z,2.70
2019-02-11T15:41:58.499Z,3.37
2019-02-11T15:44:27.871Z,2.77
2019-02-11T15:46:57.157Z,2.77
2019-02-11T15:49:26.868Z,4.00
2019-02-11T15:51:56.764Z,3.20
2019-02-11T15:54:26.693Z,3.67
2019-02-11T15:56:56.980Z,4.33
2019-02-11T15:59:26.627Z,2.53
2019-02-11T16:01:56.076Z,2.70
2019-02-11T16:04:25.610Z,2.83
2019-02-11T16:06:55.257Z,2.67
2019-02-11T16:09:25.322Z,3.10
2019-02-11T16:11:55.606Z,3.03
2019-02-11T16:14:25.744Z,3.53
2019-02-11T16:16:55.979Z,3.13
2019-02-11T16:19:25.846Z,2.90
2019-02-11T16:21:55.619Z,2.03
2019-02-11T16:24:25.197Z,2.97
2019-02-11T16:26:54.558Z,3.30
2019-02-11T16:29:24.254Z,3.43
2019-02-11T16:32:00.571Z,2.90
2019-02-11T16:34:26.042Z,2.50
2019-02-11T16:36:55.641Z,3.03
2019-02-11T16:39:25.605Z,2.27
2019-02-11T16:41:55.594Z,3.20
2019-02-11T16:44:25.273Z,3.13
2019-02-11T16:46:54.955Z,2.30
2019-02-11T16:49:25.307Z,2.43
2019-02-11T16:51:55.374Z,2.00
2019-02-11T16:54:25.345Z,2.60
2019-02-11T16:57:01.286Z,2.80
2019-02-11T16:59:31.273Z,2.10
2019-02-11T17:02:00.729Z,2.37
2019-02-11T17:04:30.030Z,2.30
2019-02-11T17:06:59.844Z,3.00
2019-02-11T17:09:29.365Z,2.83
2019-02-11T17:11:58.940Z,2.50
2019-02-11T17:14:28.252Z,2.77
2019-02-11T17:16:57.599Z,3.30
2019-02-11T17:19:26.821Z,4.90
2019-02-11T17:21:56.402Z,3.30
2019-02-11T17:24:26.046Z,3.60
2019-02-11T17:26:57.484Z,4.00
2019-02-11T17:29:27.684Z,3.97
2019-02-11T17:32:06.876Z,4.17
2019-02-11T17:59:00.944Z,6.57
2019-02-11T18:01:38.561Z,7.87
2019-02-11T18:04:21.075Z,3.70
2019-02-11T18:06:51.147Z,2.60
2019-02-11T18:09:33.126Z,4.80
2019-02-11T18:12:05.612Z,4.43
2019-02-11T18:14:36.311Z,3.00
2019-02-11T18:17:20.165Z,2.33
2019-02-11T18:19:51.255Z,3.00
2019-02-11T18:22:21.358Z,3.17
2019-02-11T18:24:53.802Z,2.60
2019-02-11T18:27:24.458Z,2.77
2019-02-11T18:29:58.166Z,2.73
2019-02-11T18:32:28.227Z,2.77
2019-02-11T18:34:58.688Z,7.23
2019-02-11T18:37:28.888Z,7.03
2019-02-11T18:40:00.286Z,7.30
2019-02-11T18:42:30.731Z,5.17
2019-02-11T18:45:01.171Z,5.50
2019-02-11T18:47:32.135Z,7.40
2019-02-11T18:50:02.647Z,4.80
2019-02-11T18:52:33.780Z,4.70
2019-02-11T18:55:04.139Z,3.87
2019-02-11T18:57:35.350Z,4.77
2019-02-11T19:00:06.501Z,4.80
2019-02-11T19:02:44.019Z,4.50
2019-02-11T19:05:15.499Z,4.73
2019-02-11T19:07:46.951Z,3.83
2019-02-11T19:10:17.787Z,4.20
2019-02-11T19:12:50.367Z,3.47
2019-02-11T19:15:20.701Z,3.60
2019-02-11T19:17:51.851Z,3.20
2019-02-11T19:20:24.201Z,4.27
2019-02-11T19:22:59.058Z,6.67
2019-02-11T19:25:32.444Z,5.37
2019-02-11T19:28:03.306Z,4.57
2019-02-11T19:30:33.611Z,3.73
2019-02-11T19:36:44.224Z,5.03
2019-02-11T19:39:25.436Z,4.60
2019-02-11T19:41:55.888Z,3.77
2019-02-11T19:44:32.064Z,4.30
2019-02-11T19:47:07.681Z,4.33
2019-02-11T19:49:38.657Z,4.30
2019-02-11T19:52:14.688Z,6.50
2019-02-11T19:54:47.018Z,3.50
2019-02-11T19:57:22.234Z,3.77
2019-02-11T19:59:57.031Z,3.37
2019-02-11T20:02:26.883Z,3.90
2019-02-11T20:05:10.991Z,4.00
2019-02-11T20:07:40.893Z,3.77
2019-02-11T20:10:13.937Z,4.67
2019-02-11T20:12:47.961Z,4.00
2019-02-11T20:15:20.447Z,3.67
2019-02-11T20:17:50.469Z,3.27
2019-02-11T20:20:22.501Z,7.07
2019-02-11T20:22:56.039Z,5.07
2019-02-11T20:25:26.147Z,5.00
2019-02-11T20:28:00.187Z,5.57
2019-02-11T20:30:30.345Z,5.80
2019-02-11T20:33:04.437Z,3.90
2019-02-11T20:35:37.474Z,3.90
2019-02-11T20:38:12.462Z,4.10
2019-02-11T20:40:49.812Z,3.90
2019-02-11T20:43:27.561Z,3.47
2019-02-11T20:46:03.483Z,2.53
2019-02-11T20:48:33.538Z,2.70
2019-02-11T20:51:04.756Z,2.50
2019-02-11T20:53:38.888Z,2.40
2019-02-11T20:56:16.482Z,1.90
2019-02-11T20:58:50.626Z,2.00
2019-02-11T21:01:26.362Z,1.73
2019-02-11T21:04:12.436Z,2.00
2019-02-11T21:07:11.262Z,1.93
2019-02-11T21:09:41.394Z,2.10
2019-02-11T21:12:11.816Z,2.30
2019-02-11T21:14:41.683Z,1.80
2019-02-11T21:17:12.062Z,1.77
2019-02-11T21:19:42.536Z,1.60
2019-02-11T21:22:12.587Z,2.40
2019-02-11T21:24:43.079Z,1.87
2019-02-11T21:27:21.610Z,2.10
2019-02-11T21:29:52.276Z,2.33
2019-02-11T21:32:22.726Z,1.87
2019-02-11T21:34:54.112Z,2.00
2019-02-11T21:37:26.023Z,2.30
2019-02-11T21:39:59.130Z,1.77
2019-02-11T21:42:44.502Z,1.90
2019-02-11T21:45:21.499Z,1.70
2019-02-11T21:47:51.374Z,1.93
2019-02-11T21:50:26.703Z,1.87
2019-02-11T21:52:54.276Z,2.17
2019-02-11T21:55:27.440Z,2.10
2019-02-11T21:57:58.084Z,1.80
2019-02-11T22:00:30.584Z,1.83
2019-02-11T22:03:02.879Z,2.00
2019-02-11T22:05:42.531Z,1.90
2019-02-11T22:08:14.896Z,1.90
2019-02-11T22:10:47.408Z,1.90
2019-02-11T22:13:18.310Z,3.40
2019-02-11T22:15:47.782Z,2.70
2019-02-11T22:18:17.628Z,2.13
2019-02-11T22:20:47.655Z,1.97
2019-02-11T22:23:23.197Z,2.03
2019-02-11T22:25:52.959Z,2.33
2019-02-11T22:28:22.902Z,2.50
2019-02-11T22:30:56.463Z,2.97
2019-02-11T22:33:26.433Z,3.07
2019-02-11T22:35:56.641Z,2.60
2019-02-11T22:38:26.610Z,2.73
2019-02-11T22:40:57.126Z,2.30
2019-02-11T22:43:29.796Z,2.60
2019-02-11T22:46:04.374Z,2.17
2019-02-11T22:48:37.678Z,2.60
2019-02-11T22:51:07.505Z,2.60
2019-02-11T22:53:39.263Z,3.00
2019-02-11T22:56:12.628Z,3.10
2019-02-11T22:58:42.972Z,2.50
2019-02-11T23:01:13.826Z,3.00
2019-02-11T23:03:44.136Z,2.23
2019-02-11T23:06:16.942Z,2.20
2019-02-11T23:08:46.244Z,2.30
2019-02-11T23:11:16.237Z,2.30
2019-02-11T23:13:50.794Z,2.57
2019-02-11T23:16:21.199Z,3.57
2019-02-11T23:18:51.460Z,3.50
2019-02-11T23:21:21.391Z,2.90
2019-02-11T23:23:51.729Z,3.50
2019-02-11T23:26:21.726Z,2.50
2019-02-11T23:28:51.763Z,2.90
2019-02-11T23:31:24.178Z,2.20
2019-02-11T23:33:54.997Z,2.87
2019-02-11T23:36:24.872Z,3.03
2019-02-11T23:38:56.642Z,3.57
2019-02-11T23:41:27.116Z,2.87
2019-02-11T23:43:57.262Z,2.93
2019-02-11T23:46:28.453Z,3.00
2019-02-11T23:48:58.287Z,3.43
2019-02-11T23:51:31.390Z,3.20
2019-02-11T23:54:01.754Z,3.23
2019-02-11T23:56:31.879Z,3.23
2019-02-11T23:59:01.481Z,3.27
